Colon, Michigan
Current Conditions -  °F | °C
As of 8:35 PM on Thursday 27 Nov 2014 (Local Time) from KIRS Reporting Station
Light Snow Light Snow  
Wind Chill: 16°   Ceiling: 4400
Heat Index: 23°   Visibility: 10mi
Dew Point: 19°   Wind: 6mph
Humidity: 86%   Direction: 330°NNW
Pressure: 30.32"   Gusts: NA
Location:  41.96°N, 85.32°W
Report Text: KIRS 280135Z AUTO 33005KT 10SM -SN SCT028 BKN044 OVC055 M05/M07 A3032 RMK AO2
Loading
Personal Weather Stations






























Interactive Weather Map New forecast layout! Learn more

10-Day Weather Forecast

Advertisements
Track Severe Weather on mobile